Bookmark and Share
Track history (hours):
 

Ice Star

Last reported at 2014-Apr-15 03:33 UTC. Time now 2014-Apr-17 04:03 UTC.
Position N 22°49' E 116°56'.

Length 367 m; draft 12.8 m.

Type: Ship. MMSI: 220596000.

NotesDate/timePositionNaut miles runAvg speedWind from/ knotsBaromVisibWave heightAir tempDewpointWater temp
2014-Apr-15 03:33N 22°49' E 116°56'15715.6
2014-Apr-14 17:30N 22°10' E 114°12'1010.4
2014-Apr-14 16:34N 22°18' E 114°06'2 0.1
2014-Apr-13 22:17N 22°20' E 114°07'1 1.9
2014-Apr-13 21:33N 22°19' E 114°06'1010.0
2014-Apr-13 20:33N 22°11' E 114°12'18 0.6
2014-Apr-12 14:25N 21°59' E 113°57'1011.5
2014-Apr-12 13:32N 22°08' E 113°51'1515.1
2014-Apr-12 12:33N 22°22' E 113°47'1413.7
2014-Apr-12 11:31N 22°35' E 113°43'4 1.6
2014-Apr-12 09:10N 22°39' E 113°41'0 0.0
2014-Apr-12 07:28N 22°39' E 113°41'0 0.0
2014-Apr-12 04:04N 22°39' E 113°41'0 0.0
2014-Apr-11 23:22N 22°39' E 113°41'0 0.0
2014-Apr-11 22:22N 22°39' E 113°41'0 0.0
2014-Apr-11 21:22N 22°39' E 113°41'0 0.0
2014-Apr-11 20:10N 22°39' E 113°41'0 0.0
2014-Apr-11 19:16N 22°39' E 113°41'0 0.1
2014-Apr-11 18:21N 22°39' E 113°41'4 5.1
2014-Apr-11 17:30N 22°35' E 113°43'1212.7
2014-Apr-11 16:33N 22°23' E 113°46'1313.5
2014-Apr-11 15:33N 22°10' E 113°50'8 8.3
2014-Apr-11 14:33N 22°02' E 113°51'1312.6
2014-Apr-11 13:33N 21°49' E 113°50'  
2014-Apr-06 02:29N 01°12' E 103°53'1415.0
2014-Apr-06 01:33N 01°05' E 103°42'1111.1
2014-Apr-06 00:34N 01°10' E 103°32'10 9.5
2014-Apr-05 23:31N 01°20' E 103°33'0 0.2
2014-Apr-05 22:22N 01°20' E 103°33'0 0.0
2014-Apr-05 21:28N 01°20' E 103°33'0 0.0
2014-Apr-05 20:31N 01°20' E 103°33'0 0.0
2014-Apr-05 19:28N 01°20' E 103°33'0 0.0
2014-Apr-05 18:22N 01°20' E 103°33'0 0.0
2014-Apr-05 17:31N 01°20' E 103°33'0 0.0
2014-Apr-05 16:25N 01°20' E 103°33'0 0.0
2014-Apr-05 15:22N 01°20' E 103°33'0 0.0
2014-Apr-05 14:25N 01°20' E 103°33'0 0.0
2014-Apr-05 13:25N 01°20' E 103°33'0 0.0
2014-Apr-05 12:25N 01°20' E 103°33'0 0.0
2014-Apr-05 11:16N 01°20' E 103°33'0 0.0
2014-Apr-05 10:31N 01°20' E 103°33'0 0.0
2014-Apr-05 09:22N 01°20' E 103°33'0 0.0
2014-Apr-05 08:19N 01°20' E 103°33'0 0.0
2014-Apr-05 07:28N 01°20' E 103°33'0 0.0
2014-Apr-05 06:31N 01°20' E 103°33'0 0.0
2014-Apr-05 05:28N 01°20' E 103°33'0 0.0
2014-Apr-05 04:19N 01°20' E 103°33'  

Dump ship's entire track history

sailing weather and tide predictions

Ice Star — OUJK2 — position and weather